Time;durP1;ratioP1;P1;durP2;ratioP2;P2;SDS_P1;SDS_P2;PMS_P1;PMS_P2;Temp;Humidity;BMP_temperature;BMP_pressure;BME280_temperature;BME280_humidity;BME280_pressure;Samples;Min_cycle;Max_cycle;Signal;HPM_P1;HPM_P2
2022/07/16 00:03:11;;;;;;;2.03;0.88;;;;;;;18.87;55.65;102187.16;4997852;28;97136;-35
2022/07/16 00:05:36;;;;;;;0.65;0.50;;;;;;;18.90;56.09;102191.53;4997501;28;99465;-35
2022/07/16 00:08:02;;;;;;;1.20;0.65;;;;;;;18.86;55.38;102188.16;4997575;28;96549;-35
2022/07/16 00:10:27;;;;;;;1.17;0.80;;;;;;;18.91;55.80;102196.06;4998199;28;96766;-35
2022/07/16 00:12:53;;;;;;;1.73;0.77;;;;;;;18.85;56.32;102193.75;4997385;28;99240;-35
2022/07/16 00:15:18;;;;;;;0.60;0.50;;;;;;;18.87;56.03;102200.00;4997364;28;99134;-35
2022/07/16 00:17:44;;;;;;;2.35;0.98;;;;;;;18.87;57.21;102191.78;4996663;28;96749;-35
2022/07/16 00:20:09;;;;;;;1.13;0.70;;;;;;;18.87;56.04;102197.28;4997818;28;96903;-35
2022/07/16 00:22:35;;;;;;;0.85;0.63;;;;;;;18.85;56.79;102200.16;4994841;28;102067;-35
2022/07/16 00:25:00;;;;;;;2.75;0.95;;;;;;;18.79;56.73;102194.25;4997176;28;99266;-35
2022/07/16 00:27:26;;;;;;;1.58;0.88;;;;;;;18.76;56.73;102186.19;4997768;28;96526;-35
2022/07/16 00:29:51;;;;;;;1.38;0.98;;;;;;;18.77;58.29;102190.72;4996296;28;96929;-35
2022/07/16 00:32:16;;;;;;;3.50;0.80;;;;;;;18.69;59.73;102205.00;4997134;28;99414;-35
2022/07/16 00:34:42;;;;;;;1.17;0.60;;;;;;;18.68;58.12;102195.00;4996782;28;99293;-36
2022/07/16 00:37:07;;;;;;;1.83;0.90;;;;;;;18.64;58.31;102198.97;4997309;28;96827;-35
2022/07/16 00:39:32;;;;;;;1.80;0.85;;;;;;;18.65;57.68;102206.22;4998106;28;96706;-35
2022/07/16 00:41:58;;;;;;;2.03;1.00;;;;;;;18.59;58.49;102182.84;4997248;28;97979;-35
2022/07/16 00:44:23;;;;;;;2.10;1.30;;;;;;;18.54;59.60;102190.50;4995499;28;99189;-35
2022/07/16 00:46:50;;;;;;;4.50;0.98;;;;;;;18.53;59.23;102183.28;4997142;28;96534;-35
2022/07/16 00:49:16;;;;;;;3.25;1.13;;;;;;;18.59;59.81;102196.56;4996092;28;96809;-35
2022/07/16 00:51:44;;;;;;;2.25;0.80;;;;;;;18.53;58.81;102172.31;4995583;28;100805;-35
2022/07/16 00:54:10;;;;;;;7.88;1.10;;;;;;;18.58;59.06;102182.94;4995393;28;100627;-35
2022/07/16 00:56:35;;;;;;;4.03;1.02;;;;;;;18.63;58.79;102181.59;4995906;28;96595;-35
2022/07/16 00:59:01;;;;;;;2.05;0.95;;;;;;;18.61;58.43;102189.06;4997371;28;96860;-35
2022/07/16 01:01:26;;;;;;;2.67;0.85;;;;;;;18.65;58.77;102190.59;4996876;28;98370;-35
2022/07/16 01:03:51;;;;;;;2.08;0.75;;;;;;;18.61;59.66;102182.72;4997154;28;97711;-35
2022/07/16 01:06:17;;;;;;;3.38;1.60;;;;;;;18.61;59.21;102191.81;4997175;28;96908;-35
2022/07/16 01:08:45;;;;;;;2.22;0.95;;;;;;;18.66;59.65;102194.22;4997203;28;96829;-35
2022/07/16 01:11:13;;;;;;;2.00;1.10;;;;;;;18.68;60.38;102197.75;4994884;28;101003;-35
2022/07/16 01:13:41;;;;;;;2.45;0.80;;;;;;;18.61;59.66;102185.47;4994966;28;101362;-35
2022/07/16 01:16:08;;;;;;;3.55;1.17;;;;;;;18.65;59.01;102192.47;4997135;28;96478;-35
2022/07/16 01:18:34;;;;;;;1.33;0.82;;;;;;;18.63;59.32;102194.47;4996937;28;96778;-35
2022/07/16 01:20:59;;;;;;;1.15;0.82;;;;;;;18.62;59.38;102195.47;4995137;28;101275;-35
2022/07/16 01:23:25;;;;;;;1.00;0.68;;;;;;;18.58;60.47;102191.19;4996893;28;97294;-35
2022/07/16 01:25:51;;;;;;;1.30;0.85;;;;;;;18.56;60.36;102193.16;4995502;28;96496;-35
2022/07/16 01:28:18;;;;;;;1.80;0.85;;;;;;;18.50;60.61;102182.66;4996006;28;96922;-35
2022/07/16 01:30:44;;;;;;;1.75;0.90;;;;;;;18.50;60.73;102183.53;4995131;28;100608;-35
2022/07/16 01:33:32;;;;;;;3.55;0.90;;;;;;;18.51;61.19;102189.88;4994947;28;99961;-35
2022/07/16 01:36:01;;;;;;;1.50;0.98;;;;;;;18.49;60.57;102181.75;4996612;28;96904;-35
2022/07/16 01:38:28;;;;;;;1.73;1.02;;;;;;;18.51;60.65;102190.75;4998744;28;96855;-35
2022/07/16 01:41:05;;;;;;;1.65;1.05;;;;;;;18.49;60.62;102173.53;4999790;28;97974;-35
2022/07/16 01:43:31;;;;;;;1.45;1.10;;;;;;;18.48;60.55;102182.75;5000000;28;97827;-35
2022/07/16 01:45:57;;;;;;;3.92;0.88;;;;;;;18.55;61.19;102188.69;5000022;28;96658;-35
2022/07/16 01:48:23;;;;;;;3.58;1.25;;;;;;;18.56;61.50;102191.28;4998777;28;96802;-35
2022/07/16 01:50:48;;;;;;;2.08;1.00;;;;;;;18.53;60.62;102182.41;4999741;28;97907;-35
2022/07/16 01:53:14;;;;;;;1.90;0.95;;;;;;;18.60;60.78;102192.81;4999956;28;97430;-35
2022/07/16 01:55:40;;;;;;;2.72;1.05;;;;;;;18.56;60.88;102180.31;4999896;28;96439;-35
2022/07/16 01:58:08;;;;;;;2.30;0.85;;;;;;;18.61;61.05;102197.31;4998620;28;96817;-35
2022/07/16 02:00:35;;;;;;;2.28;0.93;;;;;;;18.64;61.63;102196.22;4997466;28;101026;-35
2022/07/16 02:03:00;;;;;;;5.70;1.20;;;;;;;18.65;62.03;102192.47;4999677;28;97901;-35
2022/07/16 02:05:26;;;;;;;1.27;0.85;;;;;;;18.65;60.63;102198.84;4998381;28;96568;-36
2022/07/16 02:07:51;;;;;;;1.45;0.88;;;;;;;18.62;60.70;102193.59;4999896;28;96781;-35
2022/07/16 02:10:18;;;;;;;1.85;1.10;;;;;;;18.64;60.78;102191.63;4999558;28;97294;-35
2022/07/16 02:12:43;;;;;;;1.15;0.70;;;;;;;18.64;60.25;102188.00;4998047;28;100821;-35
2022/07/16 02:15:09;;;;;;;1.55;0.70;;;;;;;18.71;61.26;102203.03;4999888;28;96639;-35
2022/07/16 02:17:35;;;;;;;1.55;0.82;;;;;;;18.72;60.99;102206.63;5000270;28;96717;-35
2022/07/16 02:20:04;;;;;;;2.33;1.00;;;;;;;18.71;61.49;102196.63;4997792;28;100761;-35
2022/07/16 02:22:29;;;;;;;1.67;0.80;;;;;;;18.67;60.42;102187.75;4997651;28;101504;-35
2022/07/16 02:24:55;;;;;;;2.28;1.30;;;;;;;18.70;60.66;102201.25;4999081;28;96545;-35
2022/07/16 02:27:20;;;;;;;2.70;1.02;;;;;;;18.70;61.02;102195.75;4999812;28;96820;-35
2022/07/16 02:29:45;;;;;;;2.22;0.93;;;;;;;18.67;61.49;102202.34;4998880;28;106024;-35
2022/07/16 02:32:11;;;;;;;1.65;0.80;;;;;;;18.62;61.49;102203.69;4998793;28;99218;-35
2022/07/16 02:34:36;;;;;;;2.22;0.77;;;;;;;18.59;62.27;102218.53;4999400;28;96852;-35
2022/07/16 02:37:02;;;;;;;2.10;1.27;;;;;;;18.59;62.04;102218.53;4999236;28;96831;-35
2022/07/16 02:39:27;;;;;;;4.63;1.20;;;;;;;18.51;61.61;102211.84;4998760;28;97390;-35
2022/07/16 02:41:53;;;;;;;2.95;1.10;;;;;;;18.50;62.46;102207.34;4999314;28;97760;-35
2022/07/16 02:44:18;;;;;;;2.42;0.77;;;;;;;18.53;61.43;102215.34;4999560;28;96509;-35
2022/07/16 02:46:43;;;;;;;3.70;1.13;;;;;;;18.45;61.80;102213.19;4998975;28;96760;-35
2022/07/16 02:49:09;;;;;;;1.60;0.73;;;;;;;18.50;62.44;102232.06;4998476;28;97553;-35
2022/07/16 02:51:34;;;;;;;4.65;1.20;;;;;;;18.43;62.79;102221.50;4998400;28;98634;-36
2022/07/16 02:54:00;;;;;;;1.38;0.85;;;;;;;18.43;62.34;102231.63;4999118;28;96702;-35
2022/07/16 02:56:25;;;;;;;2.25;0.80;;;;;;;18.37;62.82;102235.66;4999288;28;96812;-35
2022/07/16 02:58:51;;;;;;;1.70;0.80;;;;;;;18.33;62.44;102225.00;4998334;28;99534;-35
2022/07/16 03:01:16;;;;;;;5.18;0.85;;;;;;;18.38;63.17;102244.78;4998379;28;97827;-35
2022/07/16 03:03:41;;;;;;;2.78;0.65;;;;;;;18.37;63.06;102237.53;4999189;28;96422;-35
2022/07/16 03:06:07;;;;;;;2.10;0.60;;;;;;;18.37;63.15;102246.63;4998879;28;96942;-35
2022/07/16 03:08:35;;;;;;;2.65;0.70;;;;;;;18.31;62.81;102229.75;4998582;28;97582;-35
2022/07/16 03:11:00;;;;;;;1.13;0.65;;;;;;;18.34;62.92;102249.59;4998351;28;98940;-35
2022/07/16 03:13:26;;;;;;;1.73;0.90;;;;;;;18.31;63.86;102248.97;4998107;28;96630;-35
2022/07/16 03:15:53;;;;;;;1.63;0.80;;;;;;;18.28;62.92;102251.91;4998865;28;96770;-35
2022/07/16 03:18:19;;;;;;;1.40;0.63;;;;;;;18.19;64.28;102240.63;4996830;28;100734;-35
2022/07/16 03:20:44;;;;;;;1.00;0.68;;;;;;;18.18;63.30;102254.44;4998070;28;97876;-35
2022/07/16 03:23:09;;;;;;;0.50;0.40;;;;;;;18.16;63.57;102257.31;4998231;28;99992;-35
2022/07/16 03:25:35;;;;;;;2.88;0.65;;;;;;;18.17;63.39;102258.19;4998538;28;96851;-35
2022/07/16 03:28:00;;;;;;;1.70;0.50;;;;;;;18.12;63.36;102255.75;4998270;28;101451;-35
2022/07/16 03:30:25;;;;;;;1.40;0.57;;;;;;;18.16;65.47;102264.63;4998405;28;99127;-35
2022/07/16 03:32:51;;;;;;;0.57;0.40;;;;;;;18.11;64.30;102259.47;4998400;28;96527;-35
2022/07/16 03:35:16;;;;;;;0.50;0.35;;;;;;;18.16;63.66;102264.63;4997767;28;96938;-34
2022/07/16 03:40:27;;;;;;;0.88;0.50;;;;;;;18.03;64.22;102253.66;4998207;28;97088;-35
2022/07/16 03:42:52;;;;;;;1.08;0.40;;;;;;;18.01;63.83;102252.88;4997040;28;96623;-35
2022/07/16 03:45:17;;;;;;;1.70;0.50;;;;;;;18.04;64.40;102267.28;4998451;28;96823;-35
2022/07/16 03:47:43;;;;;;;0.43;0.28;;;;;;;17.99;63.75;102260.34;4997621;28;99422;-35
2022/07/16 03:50:08;;;;;;;1.30;0.50;;;;;;;17.99;64.02;102274.06;4998025;28;97769;-35
2022/07/16 03:52:34;;;;;;;0.95;0.50;;;;;;;18.01;64.81;102278.44;4998501;28;96605;-35
2022/07/16 03:54:59;;;;;;;0.93;0.35;;;;;;;18.00;64.17;102273.97;4998673;28;96877;-35
2022/07/16 03:57:24;;;;;;;2.13;0.75;;;;;;;18.01;64.68;102280.31;4996014;28;119199;-35
2022/07/16 03:59:50;;;;;;;1.33;0.47;;;;;;;17.96;64.72;102285.25;4997347;28;99182;-35
2022/07/16 04:02:15;;;;;;;0.88;0.47;;;;;;;17.98;64.54;102295.13;4997553;28;96669;-35
2022/07/16 04:04:40;;;;;;;0.93;0.65;;;;;;;17.92;64.42;102278.22;4997914;28;96835;-35
2022/07/16 04:07:06;;;;;;;1.92;0.52;;;;;;;17.92;65.34;102276.34;4998001;28;97423;-35
2022/07/16 04:09:31;;;;;;;2.45;0.68;;;;;;;17.91;65.33;102292.91;4997632;28;98081;-35
2022/07/16 04:11:56;;;;;;;1.50;0.50;;;;;;;17.89;64.54;102282.03;4997560;28;96783;-35
2022/07/16 04:14:22;;;;;;;2.60;0.70;;;;;;;17.95;64.48;102302.69;4998097;28;96791;-35
2022/07/16 04:16:47;;;;;;;2.10;0.70;;;;;;;17.92;64.11;102294.66;4997142;28;105913;-35
2022/07/16 04:19:12;;;;;;;2.08;0.57;;;;;;;17.95;65.32;102295.34;4997048;28;112187;-35
2022/07/16 04:21:38;;;;;;;0.93;0.57;;;;;;;17.93;64.79;102300.03;4997600;28;96629;-35
2022/07/16 04:24:03;;;;;;;1.20;0.50;;;;;;;17.92;66.52;102303.75;4997451;28;98636;-35
2022/07/16 04:26:29;;;;;;;0.77;0.50;;;;;;;17.88;65.86;102295.88;4996971;28;97397;-35
2022/07/16 04:28:54;;;;;;;3.38;0.47;;;;;;;17.90;65.40;102311.25;4997123;28;99799;-35
2022/07/16 04:31:19;;;;;;;0.68;0.40;;;;;;;17.91;66.34;102307.50;4997672;28;97219;-35
2022/07/16 04:33:45;;;;;;;0.43;0.30;;;;;;;17.92;65.46;102319.34;4997002;28;102691;-35
2022/07/16 04:36:11;;;;;;;1.17;0.40;;;;;;;17.92;65.03;102322.94;4996447;28;98109;-35
2022/07/16 04:38:36;;;;;;;0.52;0.35;;;;;;;17.92;65.30;102320.22;4995610;28;101689;-35
2022/07/16 04:41:02;;;;;;;1.48;0.52;;;;;;;17.93;65.83;102319.25;4997331;28;96604;-35
2022/07/16 04:43:28;;;;;;;2.38;0.57;;;;;;;17.95;66.08;102327.38;4998086;28;96804;-35
2022/07/16 04:45:53;;;;;;;0.40;0.40;;;;;;;17.87;65.06;102322.38;4996901;28;98100;-35
2022/07/16 04:48:18;;;;;;;0.88;0.40;;;;;;;17.87;66.24;102324.25;4997053;28;97970;-35
2022/07/16 04:50:44;;;;;;;0.88;0.50;;;;;;;17.78;65.18;102321.16;4996827;28;96652;-35
2022/07/16 04:53:09;;;;;;;0.35;0.30;;;;;;;17.85;65.16;102323.47;4995948;28;96935;-35
2022/07/16 04:55:34;;;;;;;0.68;0.50;;;;;;;17.90;65.85;102338.66;4996924;28;97332;-35
2022/07/16 04:58:00;;;;;;;1.35;0.50;;;;;;;17.87;64.70;102336.09;4996662;28;97765;-35
2022/07/16 05:00:26;;;;;;;0.93;0.52;;;;;;;17.82;65.80;102333.66;4996795;28;96672;-36
2022/07/16 05:02:57;;;;;;;1.35;0.63;;;;;;;17.87;65.06;102337.97;4995844;28;96932;-35
2022/07/16 05:05:34;;;;;;;1.92;0.80;;;;;;;17.92;66.18;102341.25;4996640;28;99356;-35
2022/07/16 05:08:02;;;;;;;0.35;0.30;;;;;;;17.98;65.04;102344.47;4997031;28;99870;-35
2022/07/16 05:10:29;;;;;;;1.17;0.43;;;;;;;17.99;65.13;102340.72;4998862;28;96627;-35
2022/07/16 05:12:55;;;;;;;1.27;0.47;;;;;;;17.93;65.12;102340.31;4999722;28;96915;-35
2022/07/16 05:15:21;;;;;;;2.78;0.40;;;;;;;17.96;65.08;102348.31;4999638;28;97365;-35
2022/07/16 05:17:47;;;;;;;2.35;0.82;;;;;;;17.96;64.85;102340.94;4998844;28;100983;-35
2022/07/16 05:20:13;;;;;;;1.17;0.47;;;;;;;17.97;65.57;102344.56;4999306;28;96736;-35
2022/07/16 05:22:39;;;;;;;1.08;0.50;;;;;;;17.96;64.62;102351.06;5000444;28;96839;-35
2022/07/16 05:25:06;;;;;;;1.42;0.70;;;;;;;17.94;64.69;102350.28;4999895;28;98950;-35
2022/07/16 05:27:31;;;;;;;2.45;0.55;;;;;;;17.94;64.66;102356.63;4998557;28;100868;-36
2022/07/16 05:29:57;;;;;;;1.10;0.43;;;;;;;17.96;64.47;102346.44;4997806;28;96625;-35
2022/07/16 05:32:22;;;;;;;2.00;0.43;;;;;;;17.97;64.67;102361.00;4998207;28;96883;-35
2022/07/16 05:34:47;;;;;;;1.45;0.63;;;;;;;18.04;64.10;102368.75;4996782;28;110824;-35
2022/07/16 05:37:13;;;;;;;1.02;0.50;;;;;;;18.11;64.13;102368.31;4996472;28;99156;-35
2022/07/16 05:39:38;;;;;;;2.72;0.52;;;;;;;18.15;63.58;102370.72;4997316;28;96661;-35
2022/07/16 05:42:04;;;;;;;3.70;0.70;;;;;;;18.18;63.45;102362.28;4997710;28;96578;-35
2022/07/16 05:44:29;;;;;;;2.15;0.75;;;;;;;18.23;63.42;102368.34;4995764;28;101073;-35
2022/07/16 05:46:54;;;;;;;4.85;0.70;;;;;;;18.30;63.47;102378.88;4997318;28;99173;-35
2022/07/16 05:49:20;;;;;;;0.85;0.50;;;;;;;18.33;63.06;102371.31;4997124;28;97875;-35
2022/07/16 05:51:46;;;;;;;3.88;0.65;;;;;;;18.27;63.22;102360.75;4995962;28;96586;-35
2022/07/16 05:54:11;;;;;;;2.65;0.88;;;;;;;18.34;62.24;102381.28;4997024;28;99422;-35
2022/07/16 05:56:36;;;;;;;1.55;0.77;;;;;;;18.37;62.52;102377.47;4997172;28;99156;-35
2022/07/16 05:59:02;;;;;;;1.17;0.80;;;;;;;18.39;62.78;102386.47;4996715;28;105067;-36
2022/07/16 06:01:30;;;;;;;2.97;0.60;;;;;;;18.42;62.67;102383.50;4997249;28;96803;-35
2022/07/16 06:03:56;;;;;;;0.63;0.43;;;;;;;18.42;62.25;102388.97;4994997;28;101115;-35
2022/07/16 06:06:21;;;;;;;2.42;0.70;;;;;;;18.46;62.06;102398.75;4997156;28;97249;-35
2022/07/16 06:08:47;;;;;;;2.25;0.50;;;;;;;18.46;61.71;102382.31;4997371;28;96643;-35
2022/07/16 06:11:12;;;;;;;0.50;0.38;;;;;;;18.59;61.70;102396.03;4996928;28;96703;-35
2022/07/16 06:13:38;;;;;;;3.22;0.70;;;;;;;18.63;61.60;102395.69;4996596;28;97938;-36
2022/07/16 06:16:03;;;;;;;0.82;0.32;;;;;;;18.77;61.11;102404.88;4997270;28;97114;-36
2022/07/16 06:18:29;;;;;;;1.38;0.52;;;;;;;18.81;60.75;102399.03;4996793;28;96753;-35
2022/07/16 06:20:54;;;;;;;5.80;0.50;;;;;;;18.77;61.02;102393.88;4996986;28;96785;-35
2022/07/16 06:23:19;;;;;;;2.83;1.00;;;;;;;18.77;60.95;102393.88;4996501;28;99027;-35
2022/07/16 06:25:45;;;;;;;1.60;0.52;;;;;;;18.84;60.65;102401.56;4997044;28;96586;-35
2022/07/16 06:28:10;;;;;;;2.03;0.60;;;;;;;18.87;60.30;102401.34;4996362;28;96802;-35
2022/07/16 06:30:35;;;;;;;1.73;0.73;;;;;;;18.90;59.92;102411.22;4996403;28;98010;-35
2022/07/16 06:33:01;;;;;;;0.85;0.20;;;;;;;18.92;60.11;102417.47;4996506;28;99202;-35
2022/07/16 06:35:26;;;;;;;1.17;0.40;;;;;;;18.94;59.57;102420.13;4995470;28;98669;-35
2022/07/16 06:37:51;;;;;;;2.30;1.02;;;;;;;18.94;59.65;102420.13;4997022;28;96551;-35
2022/07/16 06:40:17;;;;;;;3.67;0.80;;;;;;;18.93;59.50;102423.88;4996730;28;96705;-35
2022/07/16 06:42:43;;;;;;;2.80;0.60;;;;;;;19.02;59.74;102432.31;4994791;28;100768;-35
2022/07/16 06:45:09;;;;;;;1.02;0.52;;;;;;;19.06;59.37;102431.09;4996775;28;97139;-35
2022/07/16 06:47:34;;;;;;;2.15;0.70;;;;;;;19.17;59.13;102424.84;4995257;28;96759;-35
2022/07/16 06:50:00;;;;;;;5.07;0.63;;;;;;;19.36;58.78;102435.34;4996157;28;103110;-35
2022/07/16 06:52:25;;;;;;;3.60;0.60;;;;;;;19.43;57.96;102439.41;4995936;28;97545;-35
2022/07/16 06:54:50;;;;;;;1.73;0.50;;;;;;;19.37;57.33;102434.34;4995564;28;109618;-35
2022/07/16 06:57:16;;;;;;;3.50;0.60;;;;;;;19.41;57.39;102435.91;4996412;28;96646;-35
2022/07/16 06:59:48;;;;;;;1.40;0.35;;;;;;;19.33;57.20;102440.19;4995099;28;97355;-36
2022/07/16 07:02:13;;;;;;;;;;;;;;;19.41;57.00;102446.88;4996490;28;98029;-35
2022/07/16 07:04:39;;;;;;;2.78;0.65;;;;;;;19.43;55.93;102452.28;4995171;28;97815;-35
2022/07/16 07:07:04;;;;;;;1.25;0.50;;;;;;;19.41;56.82;102455.13;4994977;28;96719;-35
2022/07/16 07:09:30;;;;;;;2.55;0.57;;;;;;;19.44;55.80;102459.53;4996793;28;96820;-35
2022/07/16 07:11:55;;;;;;;1.17;0.55;;;;;;;19.43;56.29;102447.66;4995771;28;98012;-35
2022/07/16 07:14:20;;;;;;;1.60;0.50;;;;;;;19.56;55.13;102466.00;4995660;28;99097;-35
2022/07/16 07:16:46;;;;;;;3.33;0.52;;;;;;;19.68;55.97;102465.09;4994262;28;96888;-35
2022/07/16 07:19:11;;;;;;;1.67;0.40;;;;;;;19.82;55.71;102453.94;4994528;28;100776;-36
2022/07/16 07:21:36;;;;;;;1.30;0.60;;;;;;;19.93;55.62;102461.41;4994369;28;99311;-36
2022/07/16 07:24:03;;;;;;;2.05;0.65;;;;;;;20.15;55.32;102466.16;4995278;28;97787;-35
2022/07/16 07:26:28;;;;;;;1.13;0.50;;;;;;;20.23;54.37;102465.56;4994293;28;96886;-35
2022/07/16 07:28:54;;;;;;;1.48;0.52;;;;;;;20.39;53.87;102476.28;4994699;28;96946;-35
2022/07/16 07:31:19;;;;;;;5.72;0.70;;;;;;;20.48;53.03;102468.16;4995216;28;111040;-35
2022/07/16 07:33:44;;;;;;;0.98;0.25;;;;;;;20.65;52.32;102482.53;4995666;28;102611;-35
2022/07/16 07:36:09;;;;;;;1.48;0.50;;;;;;;20.78;52.06;102478.69;4995300;28;96852;-35
2022/07/16 07:38:35;;;;;;;4.88;0.50;;;;;;;20.77;52.00;102476.06;4995782;28;96839;-35
2022/07/16 07:41:01;;;;;;;0.38;0.28;;;;;;;20.91;51.73;102477.72;4995020;28;97467;-36
2022/07/16 07:43:26;;;;;;;2.70;0.47;;;;;;;20.87;50.90;102479.81;4995521;28;97822;-35
2022/07/16 07:45:55;;;;;;;1.35;0.45;;;;;;;20.91;51.26;102486.00;4995421;28;104034;-35
2022/07/16 07:48:20;;;;;;;1.42;0.30;;;;;;;20.88;50.99;102491.72;4995982;28;96794;-35
2022/07/16 07:50:45;;;;;;;0.88;0.28;;;;;;;20.91;50.46;102492.38;4995490;28;98031;-35
2022/07/16 07:53:11;;;;;;;1.17;0.35;;;;;;;21.08;50.74;102499.28;4995178;28;105483;-35
2022/07/16 07:55:36;;;;;;;2.53;0.50;;;;;;;21.24;50.40;102498.94;4994383;28;96773;-36
2022/07/16 07:58:03;;;;;;;2.90;0.50;;;;;;;21.36;50.03;102503.47;4994462;28;96955;-35
2022/07/16 08:00:29;;;;;;;1.58;0.28;;;;;;;21.42;49.50;102505.72;4993484;28;101289;-35
2022/07/16 08:02:55;;;;;;;3.40;0.55;;;;;;;21.50;48.84;102505.13;4995294;28;97838;-35
2022/07/16 08:05:21;;;;;;;1.52;0.50;;;;;;;21.45;49.09;102488.06;4993642;28;96800;-35
2022/07/16 08:07:46;;;;;;;0.65;0.43;;;;;;;21.56;49.59;102503.75;4995473;28;96789;-35
2022/07/16 08:10:12;;;;;;;0.55;0.25;;;;;;;21.71;49.14;102504.34;4994653;28;99435;-36
2022/07/16 08:12:39;;;;;;;0.98;0.40;;;;;;;21.84;48.03;102511.50;4994871;28;99289;-36
2022/07/16 08:15:05;;;;;;;0.60;0.20;;;;;;;21.92;48.74;102507.22;4993894;28;96644;-35
2022/07/16 08:17:31;;;;;;;0.63;0.30;;;;;;;22.11;48.07;102504.66;4993784;28;96949;-35
2022/07/16 08:19:56;;;;;;;1.08;0.52;;;;;;;22.22;48.24;102523.13;4994810;28;98017;-35
2022/07/16 08:22:22;;;;;;;1.40;0.30;;;;;;;22.26;48.19;102514.44;4995243;28;97770;-35
2022/07/16 08:27:31;;;;;;;0.45;0.22;;;;;;;22.47;46.52;102516.38;4995301;28;96524;-35
2022/07/16 08:29:56;;;;;;;2.80;0.52;;;;;;;22.52;46.88;102521.50;4994293;28;97263;-35
2022/07/16 08:32:22;;;;;;;0.90;0.28;;;;;;;22.66;46.73;102527.59;4994823;28;97268;-35
2022/07/16 08:34:47;;;;;;;0.50;0.30;;;;;;;22.76;46.94;102532.31;4994943;28;96496;-35
2022/07/16 08:37:12;;;;;;;0.77;0.32;;;;;;;22.68;45.11;102519.19;4994787;28;96852;-35
2022/07/16 08:39:45;;;;;;;2.60;0.15;;;;;;;22.82;45.51;102532.66;4994285;28;98821;-35
2022/07/16 08:42:11;;;;;;;0.40;0.20;;;;;;;22.90;45.87;102541.16;4994685;28;99199;-35
2022/07/16 08:44:39;;;;;;;0.88;0.30;;;;;;;23.01;45.59;102531.97;4992943;28;96826;-35
2022/07/16 08:47:05;;;;;;;4.47;0.50;;;;;;;23.22;45.90;102543.03;4993803;28;96843;-35
2022/07/16 08:49:31;;;;;;;3.90;0.47;;;;;;;23.27;44.96;102532.44;4993004;28;101117;-35
2022/07/16 08:52:06;;;;;;;0.70;0.38;;;;;;;23.47;44.66;102557.44;4992880;28;100922;-35
2022/07/16 08:54:33;;;;;;;0.80;0.28;;;;;;;23.56;43.86;102551.06;4992885;28;96679;-35
2022/07/16 08:56:59;;;;;;;3.03;0.55;;;;;;;23.52;43.93;102558.75;4994857;28;96867;-35
2022/07/16 08:59:27;;;;;;;1.08;0.30;;;;;;;23.46;44.47;102555.69;4992958;28;101007;-35
2022/07/16 09:01:52;;;;;;;1.92;0.50;;;;;;;23.38;44.07;102558.25;4993957;28;98087;-35
2022/07/16 09:04:17;;;;;;;2.03;0.63;;;;;;;23.14;44.74;102548.34;4994380;28;96880;-36
2022/07/16 09:06:43;;;;;;;1.05;0.47;;;;;;;23.25;45.13;102548.28;4994476;28;96824;-35
2022/07/16 09:09:08;;;;;;;1.13;0.68;;;;;;;23.40;44.13;102558.97;4994120;28;99795;-35
2022/07/16 09:11:35;;;;;;;6.90;0.70;;;;;;;23.45;44.44;102562.22;4994636;28;97204;-35
2022/07/16 09:14:07;;;;;;;2.33;0.50;;;;;;;23.51;43.86;102573.63;4993262;28;96655;-35
2022/07/16 09:16:35;;;;;;;1.77;0.50;;;;;;;23.56;42.74;102566.78;4994537;28;96912;-35
2022/07/16 09:19:12;;;;;;;2.85;0.65;;;;;;;23.56;42.90;102569.56;4992001;28;99244;-35
2022/07/16 09:22:03;;;;;;;0.93;0.50;;;;;;;23.66;42.11;102565.81;4994284;28;97866;-36
2022/07/16 09:24:34;;;;;;;1.27;0.22;;;;;;;23.65;42.28;102560.44;4992995;28;97944;-35
2022/07/16 09:27:17;;;;;;;3.25;0.30;;;;;;;23.85;41.98;102575.25;4994311;28;96833;-35
2022/07/16 09:29:44;;;;;;;1.92;0.38;;;;;;;24.05;42.74;102577.09;4993932;28;99496;-35
2022/07/16 09:32:10;;;;;;;1.02;0.35;;;;;;;24.03;41.58;102573.59;4992605;28;98821;-35
2022/07/16 09:34:36;;;;;;;2.83;0.60;;;;;;;24.03;42.88;102581.91;4992516;28;96829;-35
2022/07/16 09:37:04;;;;;;;0.50;0.38;;;;;;;23.99;42.09;102576.78;4994294;28;96835;-35
2022/07/16 09:39:31;;;;;;;0.88;0.45;;;;;;;24.21;41.82;102583.97;4993506;28;99302;-35
2022/07/16 09:41:57;;;;;;;2.60;0.50;;;;;;;24.26;40.02;102576.13;4992156;28;100263;-35
2022/07/16 09:44:26;;;;;;;1.20;0.50;;;;;;;24.43;40.62;102582.84;4992257;28;96714;-35
2022/07/16 09:47:06;;;;;;;0.55;0.22;;;;;;;24.51;40.88;102585.84;4992734;28;96952;-35
2022/07/16 09:49:36;;;;;;;1.27;0.50;;;;;;;24.54;40.57;102593.84;4992353;28;103461;-35
2022/07/16 09:52:02;;;;;;;0.45;0.30;;;;;;;24.79;40.99;102587.75;4992317;28;100731;-35
2022/07/16 09:54:32;;;;;;;1.80;0.65;;;;;;;24.76;40.01;102585.25;4993921;28;96622;-35
2022/07/16 09:57:17;;;;;;;8.37;0.73;;;;;;;24.26;40.43;102593.59;4994911;28;96844;-35
2022/07/16 09:59:43;;;;;;;1.30;0.40;;;;;;;24.38;40.60;102599.91;4996977;28;100147;-35
2022/07/16 10:02:09;;;;;;;1.83;0.63;;;;;;;24.52;41.50;102582.91;4995831;28;101106;-35
2022/07/16 10:04:35;;;;;;;0.43;0.20;;;;;;;24.63;39.97;102593.00;4997175;28;96670;-35
2022/07/16 10:07:00;;;;;;;3.00;0.60;;;;;;;24.64;41.38;102596.63;4997361;28;96745;-35
2022/07/16 10:09:26;;;;;;;0.80;0.50;;;;;;;24.40;40.90;102594.22;4996668;28;97923;-35
2022/07/16 10:11:53;;;;;;;1.85;0.50;;;;;;;24.27;40.52;102606.47;4995339;28;101139;-35
2022/07/16 10:14:19;;;;;;;0.60;0.50;;;;;;;24.38;41.14;102584.19;4997273;28;96669;-35
2022/07/16 10:16:45;;;;;;;1.67;0.50;;;;;;;24.61;41.11;102597.81;4995861;28;96905;-35
2022/07/16 10:19:12;;;;;;;4.15;0.32;;;;;;;24.81;41.02;102607.00;4995186;28;101028;-35
2022/07/16 10:21:38;;;;;;;2.13;0.50;;;;;;;24.93;40.34;102616.94;4995247;28;100819;-35
2022/07/16 10:24:09;;;;;;;0.93;0.20;;;;;;;25.01;39.34;102599.56;4995710;28;96608;-35
2022/07/16 10:26:35;;;;;;;1.97;0.47;;;;;;;25.10;39.47;102604.25;4997658;28;96798;-35
2022/07/16 10:29:02;;;;;;;0.73;0.40;;;;;;;24.91;40.16;102610.66;4995293;28;101126;-35
2022/07/16 10:31:41;;;;;;;5.72;0.52;;;;;;;24.66;40.23;102614.88;4994897;28;100863;-35
2022/07/16 10:34:15;;;;;;;1.90;0.45;;;;;;;24.31;41.08;102610.69;4996457;28;96507;-35
2022/07/16 10:36:50;;;;;;;2.17;0.38;;;;;;;24.49;39.95;102610.91;4995959;28;96932;-35
2022/07/16 10:39:17;;;;;;;2.90;0.50;;;;;;;24.71;39.85;102615.31;4995490;28;99471;-36
2022/07/16 10:41:48;;;;;;;3.35;0.40;;;;;;;24.61;40.29;102628.28;4994623;28;100939;-35
2022/07/16 10:44:14;;;;;;;2.65;0.50;;;;;;;24.60;40.48;102618.22;4996405;28;96507;-35
2022/07/16 10:47:01;;;;;;;0.70;0.40;;;;;;;24.78;39.76;102622.03;4996792;28;96737;-35
2022/07/16 10:49:29;;;;;;;1.35;0.45;;;;;;;25.04;39.97;102624.22;4994948;28;101129;-35
2022/07/16 10:52:06;;;;;;;2.20;0.70;;;;;;;24.61;38.21;102627.41;4996516;28;99211;-35
2022/07/16 10:54:31;;;;;;;0.65;0.60;;;;;;;24.74;39.28;102636.31;4994400;28;96686;-35
2022/07/16 10:56:58;;;;;;;2.75;0.60;;;;;;;24.91;39.12;102643.06;4995707;28;96939;-35
2022/07/16 10:59:35;;;;;;;2.67;0.47;;;;;;;25.14;38.76;102624.22;4994389;28;100932;-35
2022/07/16 11:02:06;;;;;;;1.85;0.52;;;;;;;25.29;38.43;102645.00;4995973;28;97916;-35
2022/07/16 11:04:44;;;;;;;4.38;0.82;;;;;;;25.09;38.54;102640.44;4995094;28;96560;-35
2022/07/16 11:07:11;;;;;;;2.38;0.55;;;;;;;24.78;38.60;102638.66;4994545;28;96835;-35
2022/07/16 11:09:39;;;;;;;1.52;0.52;;;;;;;24.72;39.67;102643.94;4994663;28;100835;-35
2022/07/16 11:12:14;;;;;;;0.90;0.28;;;;;;;24.71;38.04;102639.38;4994474;28;100763;-35
2022/07/16 11:14:41;;;;;;;1.88;0.50;;;;;;;24.97;39.08;102642.47;4996447;28;96552;-35
2022/07/16 11:17:07;;;;;;;0.40;0.30;;;;;;;25.13;38.44;102647.44;4995980;28;96706;-35
2022/07/16 11:19:41;;;;;;;1.00;0.32;;;;;;;25.24;38.43;102646.44;4995685;28;97426;-35
2022/07/16 11:22:06;;;;;;;2.22;0.60;;;;;;;25.40;38.61;102653.13;4994221;28;100878;-35
2022/07/16 11:24:32;;;;;;;1.88;0.47;;;;;;;25.32;38.48;102644.69;4995506;28;96448;-35
2022/07/16 11:26:59;;;;;;;3.30;0.77;;;;;;;24.87;37.47;102648.00;4986880;28;96770;-35
2022/07/16 11:29:26;;;;;;;1.13;0.70;;;;;;;24.89;39.26;102650.66;4988277;28;100864;-35